Time;durP1;ratioP1;P1;durP2;ratioP2;P2;SDS_P1;SDS_P2;PMS_P1;PMS_P2;Temp;Humidity;BMP_temperature;BMP_pressure;BME280_temperature;BME280_humidity;BME280_pressure;Samples;Min_cycle;Max_cycle;Signal;HPM_P1;HPM_P2
2023/06/14 03:58:32;;;;;;;12.68;9.32;;;;;;;16.42;77.14;100299.50;5607733;31;79781;-54
2023/06/14 04:01:35;;;;;;;12.37;9.88;;;;;;;16.42;77.14;100299.50;5583401;31;33107;-55
2023/06/14 04:04:38;;;;;;;13.55;9.57;;;;;;;16.00;78.38;100305.75;5583256;31;33486;-55
2023/06/14 04:07:44;;;;;;;12.18;9.18;;;;;;;16.09;78.85;100309.22;5583330;31;34405;-55
2023/06/14 04:10:47;;;;;;;;;;;;;;;16.24;76.40;100310.66;5584178;31;32249;-55
2023/06/14 04:13:49;;;;;;;12.27;9.40;;;;;;;16.36;75.07;100319.72;5583916;32;33986;-57
2023/06/14 04:16:51;;;;;;;12.00;8.82;;;;;;;16.40;77.02;100317.16;5583320;31;33174;-58
2023/06/14 04:19:54;;;;;;;12.82;9.55;;;;;;;16.41;75.32;100316.84;5583337;31;33309;-58
2023/06/14 04:22:57;;;;;;;13.07;9.25;;;;;;;16.57;75.34;100319.84;5583477;31;33657;-58
2023/06/14 04:26:02;;;;;;;13.15;9.40;;;;;;;16.45;75.90;100323.19;5583285;31;34282;-58
2023/06/14 04:29:05;;;;;;;13.02;9.20;;;;;;;16.53;75.42;100332.44;5583524;32;33638;-58
2023/06/14 04:32:10;;;;;;;11.70;9.18;;;;;;;16.45;76.69;100325.09;5583259;31;33394;-58
2023/06/14 04:35:12;;;;;;;15.88;9.48;;;;;;;16.49;74.56;100333.38;5583463;31;34315;-58
2023/06/14 04:38:18;;;;;;;14.18;9.15;;;;;;;16.58;74.74;100324.13;5583216;31;34341;-58
2023/06/14 04:41:22;;;;;;;12.10;9.00;;;;;;;16.61;73.64;100319.97;5583384;31;33524;-58
2023/06/14 04:44:29;;;;;;;14.73;8.95;;;;;;;16.69;74.48;100327.31;5583367;31;34424;-58
2023/06/14 04:47:35;;;;;;;12.65;9.23;;;;;;;16.79;76.31;100329.69;5583188;32;32088;-57
2023/06/14 04:50:43;;;;;;;12.93;9.18;;;;;;;16.81;74.63;100332.84;5581239;32;33595;-58
2023/06/14 04:53:45;;;;;;;17.05;9.27;;;;;;;16.98;72.81;100331.22;5563610;32;33547;-58
2023/06/14 04:56:47;;;;;;;14.00;8.68;;;;;;;16.94;78.96;100343.81;5563268;32;33618;-57
2023/06/14 04:59:54;;;;;;;12.27;8.70;;;;;;;17.04;79.31;100343.47;5562887;32;33216;-58
2023/06/14 05:02:57;;;;;;;14.35;9.05;;;;;;;17.02;81.81;100342.97;5563048;32;33659;-58
2023/06/14 05:06:01;;;;;;;13.65;8.90;;;;;;;17.16;75.16;100342.78;5562661;32;33409;-58
2023/06/14 05:09:03;;;;;;;14.13;10.10;;;;;;;17.26;84.63;100342.44;5553719;32;33257;-58
2023/06/14 05:12:09;;;;;;;12.27;8.70;;;;;;;17.29;72.24;100339.88;5550108;32;33556;-57
2023/06/14 05:15:11;;;;;;;11.77;8.52;;;;;;;17.33;72.21;100338.09;5550460;32;33656;-58
2023/06/14 05:18:14;;;;;;;11.85;8.88;;;;;;;17.47;77.57;100337.84;5550183;32;33264;-58
2023/06/14 05:21:18;;;;;;;20.85;9.88;;;;;;;17.75;75.35;100335.47;5550018;32;34275;-57
2023/06/14 05:24:20;;;;;;;13.82;9.25;;;;;;;17.95;72.35;100338.56;5549854;32;34059;-55
2023/06/14 05:27:24;;;;;;;13.98;8.43;;;;;;;17.90;71.56;100342.22;5549919;32;34099;-55
2023/06/14 05:30:29;;;;;;;15.98;9.02;;;;;;;18.17;72.27;100346.31;5549568;32;33379;-55
2023/06/14 05:33:31;;;;;;;14.82;8.45;;;;;;;18.30;69.99;100347.97;5561824;32;33767;-55
2023/06/14 05:36:33;;;;;;;13.05;8.57;;;;;;;18.58;68.88;100346.63;5568185;32;34469;-55
2023/06/14 05:39:36;;;;;;;11.68;8.38;;;;;;;18.61;67.42;100349.47;5569111;32;34418;-57
2023/06/14 05:42:38;;;;;;;12.70;8.18;;;;;;;18.63;66.24;100332.81;5568108;32;33235;-55
2023/06/14 05:45:40;;;;;;;13.90;8.35;;;;;;;18.43;71.56;100343.41;5567679;32;34389;-55
2023/06/14 05:48:43;;;;;;;12.23;7.82;;;;;;;18.43;67.87;100346.09;5568840;32;34412;-56
2023/06/14 05:51:45;;;;;;;12.55;8.35;;;;;;;18.47;69.70;100346.22;5566772;32;33334;-55
2023/06/14 05:54:48;;;;;;;10.43;7.70;;;;;;;18.78;67.99;100349.31;5568347;32;33645;-56
2023/06/14 05:57:50;;;;;;;11.07;8.45;;;;;;;18.89;73.27;100357.81;5568553;32;34316;-55
2023/06/14 06:00:53;;;;;;;11.77;8.15;;;;;;;18.84;65.56;100352.63;5569242;32;33922;-55
2023/06/14 06:03:55;;;;;;;11.35;7.87;;;;;;;18.91;65.73;100354.78;5568690;32;34353;-57
2023/06/14 06:06:58;;;;;;;12.23;7.95;;;;;;;18.95;66.72;100353.75;5568737;32;34076;-56
2023/06/14 06:10:04;;;;;;;12.27;7.75;;;;;;;19.19;64.69;100344.84;5568513;32;33575;-56
2023/06/14 06:13:07;;;;;;;12.20;7.97;;;;;;;19.03;64.84;100343.91;5568738;32;33711;-55
2023/06/14 06:16:13;;;;;;;11.15;8.32;;;;;;;19.14;64.82;100347.78;5568599;32;34423;-55
2023/06/14 06:19:17;;;;;;;9.52;7.45;;;;;;;19.42;69.07;100350.62;5567724;32;34374;-55
2023/06/14 06:22:21;;;;;;;11.63;7.87;;;;;;;19.37;64.55;100347.31;5563302;32;33441;-55
2023/06/14 06:25:27;;;;;;;13.23;8.02;;;;;;;19.29;65.09;100343.59;5563065;32;33536;-56
2023/06/14 06:28:31;;;;;;;11.82;7.15;;;;;;;19.40;65.01;100354.81;5565817;32;34100;-55
2023/06/14 06:31:37;;;;;;;14.65;8.15;;;;;;;19.57;66.90;100353.78;5559344;32;33707;-56
2023/06/14 06:34:41;;;;;;;14.73;7.72;;;;;;;19.68;64.07;100349.50;5560377;32;34429;-56
2023/06/14 06:37:49;;;;;;;21.55;7.50;;;;;;;19.85;62.17;100345.72;5567770;32;33555;-56
2023/06/14 06:40:58;;;;;;;11.75;7.70;;;;;;;19.83;65.96;100350.72;5567657;32;33584;-56
2023/06/14 06:44:05;;;;;;;10.63;7.57;;;;;;;20.07;63.74;100347.16;5566485;32;33575;-56
2023/06/14 06:47:11;;;;;;;;;;;;;;;20.12;61.96;100347.69;5567884;32;32003;-56
2023/06/14 06:50:15;;;;;;;;;;;;;;;20.22;63.94;100342.91;5565530;32;34267;-58
2023/06/14 06:53:22;;;;;;;9.93;6.57;;;;;;;20.04;61.13;100339.69;5567384;31;33586;-56
2023/06/14 06:56:43;;;;;;;10.55;6.18;;;;;;;19.93;68.50;100353.78;5567714;32;33310;-57
2023/06/14 06:59:49;;;;;;;10.63;6.87;;;;;;;20.08;63.33;100348.75;5567811;32;33548;-57
2023/06/14 07:02:55;;;;;;;11.20;7.05;;;;;;;19.79;63.49;100352.53;5567478;32;34364;-56
2023/06/14 07:06:02;;;;;;;9.25;6.75;;;;;;;19.66;63.26;100354.47;5566462;32;33589;-56
2023/06/14 07:09:12;;;;;;;8.98;7.10;;;;;;;19.71;64.93;100352.34;5566875;32;34025;-56
2023/06/14 07:12:16;;;;;;;9.60;6.90;;;;;;;19.86;63.74;100350.81;5550046;32;33679;-56
2023/06/14 07:15:23;;;;;;;9.43;6.68;;;;;;;19.70;61.32;100353.47;5567356;32;34381;-58
2023/06/14 07:18:30;;;;;;;10.77;6.68;;;;;;;19.65;63.45;100348.25;5564294;32;33690;-57
2023/06/14 07:21:37;;;;;;;10.07;7.20;;;;;;;19.59;62.95;100352.31;5568009;32;33604;-56
2023/06/14 07:24:43;;;;;;;12.63;6.62;;;;;;;19.76;62.67;100345.06;5567103;32;33567;-56
2023/06/14 07:27:52;;;;;;;9.40;6.47;;;;;;;19.77;64.77;100349.34;5566781;32;33717;-56
2023/06/14 07:30:58;;;;;;;9.20;6.72;;;;;;;19.92;62.98;100348.66;5563524;32;33550;-57
2023/06/14 07:34:06;;;;;;;9.88;6.32;;;;;;;20.16;68.57;100345.87;5567143;32;33426;-56
2023/06/14 07:37:12;;;;;;;9.95;6.60;;;;;;;20.02;62.97;100347.41;5567146;32;32288;-56
2023/06/14 07:40:19;;;;;;;9.52;6.75;;;;;;;20.12;64.24;100355.06;5566002;32;33719;-56
2023/06/14 07:43:29;;;;;;;14.87;6.75;;;;;;;20.02;62.43;100353.62;5565461;32;33251;-58
2023/06/14 07:46:34;;;;;;;8.70;5.70;;;;;;;20.08;66.18;100356.91;5565437;32;33221;-57
2023/06/14 07:49:40;;;;;;;11.63;6.67;;;;;;;20.17;67.22;100360.28;5567067;32;33782;-58
2023/06/14 07:52:46;;;;;;;11.15;6.00;;;;;;;20.18;62.53;100359.13;5566534;32;33238;-57
2023/06/14 07:55:51;;;;;;;11.35;6.22;;;;;;;20.13;69.08;100365.63;5566222;32;34290;-58
2023/06/14 07:59:00;;;;;;;9.13;6.40;;;;;;;20.12;61.42;100365.97;5560057;32;33452;-58
2023/06/14 08:02:11;;;;;;;15.63;6.93;;;;;;;20.19;59.74;100368.87;5561007;32;33563;-57
2023/06/14 08:05:19;;;;;;;12.18;6.57;;;;;;;20.11;61.65;100367.88;5566337;32;34045;-58
2023/06/14 08:08:23;;;;;;;12.25;6.20;;;;;;;20.13;62.13;100368.34;5565654;31;34556;-57
2023/06/14 08:11:28;;;;;;;8.47;6.33;;;;;;;20.28;66.53;100374.19;5567227;32;33601;-57
2023/06/14 08:14:33;;;;;;;13.02;6.25;;;;;;;20.32;65.28;100369.63;5566789;32;33183;-57
2023/06/14 08:17:38;;;;;;;12.15;6.03;;;;;;;20.69;64.28;100366.78;5563282;32;34349;-58
2023/06/14 08:20:43;;;;;;;8.35;6.15;;;;;;;20.71;63.16;100367.22;5564372;32;33981;-58
2023/06/14 08:23:47;;;;;;;10.38;6.53;;;;;;;20.91;60.82;100368.12;5566335;32;34396;-58
2023/06/14 08:26:52;;;;;;;15.52;6.05;;;;;;;20.90;60.64;100359.19;5566253;32;33689;-57
2023/06/14 08:29:57;;;;;;;13.47;6.67;;;;;;;20.75;61.80;100360.72;5564279;32;34411;-57
2023/06/14 08:33:01;;;;;;;23.10;6.95;;;;;;;20.83;59.46;100362.50;5566145;32;34365;-57
2023/06/14 08:36:19;;;;;;;12.57;6.12;;;;;;;20.69;60.50;100372.22;5562642;32;34006;-58
2023/06/14 08:39:24;;;;;;;12.63;6.45;;;;;;;20.62;59.13;100373.59;5565695;32;33316;-57
2023/06/14 08:42:30;;;;;;;16.20;6.95;;;;;;;20.60;57.85;100375.91;5560064;32;33451;-57
2023/06/14 08:45:35;;;;;;;12.88;6.40;;;;;;;20.60;58.53;100377.84;5549387;32;34314;-57
2023/06/14 08:48:39;;;;;;;11.05;5.93;;;;;;;20.58;60.20;100382.84;5549320;32;33581;-57
2023/06/14 08:51:44;;;;;;;10.48;6.45;;;;;;;20.72;59.78;100388.66;5555508;32;34406;-57
2023/06/14 08:54:49;;;;;;;20.47;6.50;;;;;;;20.64;58.13;100384.97;5568689;32;33266;-55
2023/06/14 08:57:55;;;;;;;12.65;6.10;;;;;;;20.67;59.59;100390.88;5568584;31;34376;-55
2023/06/14 09:01:02;;;;;;;10.88;5.22;;;;;;;20.71;58.98;100403.44;5566229;32;34154;-55
2023/06/14 09:04:05;;;;;;;12.88;6.15;;;;;;;20.66;61.90;100406.37;5551647;32;33762;-54
2023/06/14 09:07:09;;;;;;;11.00;5.90;;;;;;;20.70;60.40;100407.31;5559340;32;33842;-56
2023/06/14 09:10:13;;;;;;;11.70;6.25;;;;;;;20.76;59.43;100405.09;5556384;32;33713;-54
2023/06/14 09:13:17;;;;;;;19.33;5.90;;;;;;;20.77;59.47;100406.72;5563804;32;34451;-54
2023/06/14 09:16:19;;;;;;;12.13;6.10;;;;;;;20.77;59.22;100403.97;5561898;32;34196;-55
2023/06/14 09:19:24;;;;;;;12.93;5.80;;;;;;;20.76;58.95;100396.94;5567645;32;34273;-56
2023/06/14 09:22:29;;;;;;;16.75;5.62;;;;;;;20.72;59.24;100404.22;5564465;32;33368;-56
2023/06/14 09:25:32;;;;;;;14.98;6.30;;;;;;;20.72;58.59;100412.38;5564729;32;33355;-55
2023/06/14 09:28:45;;;;;;;16.95;5.72;;;;;;;20.80;59.20;100406.78;5561413;32;33672;-56
2023/06/14 09:31:48;;;;;;;11.57;6.07;;;;;;;20.76;60.82;100405.09;5557451;32;34534;-55
2023/06/14 09:34:52;;;;;;;21.80;6.10;;;;;;;20.78;57.70;100398.16;5552734;32;34334;-56
2023/06/14 09:37:55;;;;;;;17.15;5.80;;;;;;;20.81;58.96;100400.19;5556712;32;33754;-55
2023/06/14 09:40:58;;;;;;;16.12;5.90;;;;;;;20.84;58.22;100390.53;5560022;32;33721;-57
2023/06/14 09:44:05;;;;;;;13.73;5.53;;;;;;;20.83;58.08;100391.69;5565583;32;33675;-56
2023/06/14 09:47:13;;;;;;;9.52;5.15;;;;;;;20.85;57.86;100394.84;5567663;32;34415;-55
2023/06/14 09:50:16;;;;;;;9.15;5.35;;;;;;;20.86;57.12;100389.06;5567836;32;33695;-55
2023/06/14 09:53:22;;;;;;;10.32;5.10;;;;;;;20.99;57.47;100381.59;5568347;32;33608;-56
2023/06/14 09:56:30;;;;;;;8.63;4.95;;;;;;;21.07;55.43;100385.28;5549447;32;33891;-54
2023/06/14 09:59:33;;;;;;;11.35;5.07;;;;;;;21.06;52.66;100378.28;5568078;32;34296;-55
2023/06/14 10:02:37;;;;;;;9.48;4.97;;;;;;;21.07;56.83;100377.91;5565673;32;33854;-56
2023/06/14 10:05:45;;;;;;;9.40;4.60;;;;;;;21.01;53.28;100376.59;5563329;32;33608;-58
2023/06/14 10:08:49;;;;;;;9.77;5.40;;;;;;;21.07;55.51;100379.84;5566288;32;32272;-57
2023/06/14 10:11:52;;;;;;;8.52;4.80;;;;;;;21.07;53.61;100374.41;5565835;32;33578;-57
2023/06/14 10:14:55;;;;;;;7.53;5.32;;;;;;;21.20;55.15;100380.56;5566513;32;33716;-57
2023/06/14 10:18:09;;;;;;;7.03;4.82;;;;;;;21.35;58.36;100377.06;5567364;32;34764;-57
2023/06/14 10:21:33;;;;;;;8.27;5.55;;;;;;;21.47;56.40;100374.22;5567520;32;33353;-57
2023/06/14 10:24:43;;;;;;;10.15;4.75;;;;;;;21.60;53.57;100374.12;5566648;32;33631;-57
2023/06/14 10:27:46;;;;;;;7.30;4.53;;;;;;;21.80;54.00;100371.09;5567512;32;33223;-57
2023/06/14 10:31:09;;;;;;;9.05;4.45;;;;;;;21.80;52.46;100365.63;5548584;32;33884;-58
2023/06/14 10:34:23;;;;;;;9.10;4.37;;;;;;;21.85;49.75;100364.56;5565331;32;34817;-57
2023/06/14 10:37:25;;;;;;;7.65;4.32;;;;;;;21.86;48.89;100363.44;5563037;32;33698;-58
2023/06/14 10:40:31;;;;;;;9.43;4.10;;;;;;;21.95;48.32;100361.28;5567758;32;33608;-58
2023/06/14 10:43:33;;;;;;;7.65;3.97;;;;;;;22.02;50.90;100366.91;5567081;32;34395;-58
2023/06/14 10:46:36;;;;;;;8.80;4.28;;;;;;;22.08;47.38;100361.94;5561483;32;34266;-57
2023/06/14 10:49:41;;;;;;;4.97;3.53;;;;;;;22.17;48.58;100359.03;5557060;32;34335;-57
2023/06/14 10:52:44;;;;;;;5.97;3.62;;;;;;;22.31;46.15;100353.06;5549023;32;33317;-57
2023/06/14 10:55:48;;;;;;;6.22;3.92;;;;;;;22.28;45.07;100357.28;5558965;32;33538;-57
2023/06/14 10:58:52;;;;;;;6.15;3.47;;;;;;;22.22;44.34;100358.75;5554997;32;32114;-57
2023/06/14 11:02:19;;;;;;;7.47;3.25;;;;;;;22.29;46.87;100350.69;5562264;32;33614;-57
2023/06/14 11:05:28;;;;;;;5.65;3.00;;;;;;;22.46;46.48;100349.47;5561129;32;33840;-57
2023/06/14 11:09:20;;;;;;;6.55;3.90;;;;;;;22.55;44.07;100349.22;5556483;32;34439;-57
2023/06/14 11:12:25;;;;;;;5.12;3.67;;;;;;;22.56;42.61;100337.16;5558502;32;33602;-57
2023/06/14 11:15:33;;;;;;;;;;;;;;;22.43;41.71;100333.78;5556308;32;33630;-57
2023/06/14 11:18:36;;;;;;;7.07;3.80;;;;;;;22.41;43.25;100334.12;5555766;32;33980;-57
2023/06/14 11:21:40;;;;;;;5.60;3.70;;;;;;;22.45;42.94;100332.28;5561520;32;33557;-57
2023/06/14 11:24:43;;;;;;;6.82;3.80;;;;;;;22.57;46.38;100334.06;5545932;32;33608;-57
2023/06/14 11:27:46;;;;;;;7.35;4.28;;;;;;;22.58;42.51;100338.34;5549976;32;34563;-58
2023/06/14 11:30:59;;;;;;;6.00;3.72;;;;;;;22.67;49.64;100329.94;5557693;32;34304;-57
2023/06/14 11:34:02;;;;;;;5.47;3.35;;;;;;;22.67;42.18;100324.47;5560955;32;34698;-58
2023/06/14 11:37:05;;;;;;;4.87;3.58;;;;;;;22.71;44.58;100331.59;5567253;32;33700;-57
2023/06/14 11:40:11;;;;;;;6.65;3.40;;;;;;;22.91;43.79;100329.59;5558580;32;33711;-57
2023/06/14 11:43:14;;;;;;;5.53;3.37;;;;;;;22.93;43.39;100321.84;5563327;32;34360;-57
2023/06/14 11:46:17;;;;;;;7.22;3.92;;;;;;;23.02;42.52;100323.53;5560038;32;34339;-58
2023/06/14 11:49:20;;;;;;;5.18;3.70;;;;;;;23.28;42.41;100320.84;5549990;32;33339;-57
2023/06/14 11:52:23;;;;;;;8.57;3.35;;;;;;;23.30;41.52;100315.78;5547571;32;34338;-58
2023/06/14 11:55:25;;;;;;;4.95;3.33;;;;;;;23.30;42.07;100312.25;5562300;32;33302;-57
2023/06/14 11:58:29;;;;;;;5.28;3.42;;;;;;;23.23;41.08;100323.09;5563575;32;34017;-58
2023/06/14 12:01:32;;;;;;;7.25;3.70;;;;;;;23.24;42.32;100321.94;5560200;32;34216;-57
2023/06/14 12:04:35;;;;;;;6.87;3.40;;;;;;;23.27;42.97;100324.72;5566623;32;33625;-57
2023/06/14 12:07:39;;;;;;;6.03;3.37;;;;;;;23.16;40.88;100329.22;5564324;32;34348;-57
2023/06/14 12:10:45;;;;;;;6.18;3.50;;;;;;;23.19;41.36;100328.50;5560574;32;34359;-57
2023/06/14 12:13:49;;;;;;;5.82;3.47;;;;;;;23.24;38.91;100327.41;5565948;32;33608;-57
2023/06/14 12:16:51;;;;;;;5.78;3.42;;;;;;;23.20;41.75;100319.91;5564336;32;34402;-58
2023/06/14 12:19:54;;;;;;;6.28;3.58;;;;;;;23.12;40.25;100322.94;5563212;32;33750;-57
2023/06/14 12:23:00;;;;;;;6.40;3.60;;;;;;;23.01;41.07;100321.94;5553551;32;33773;-57
2023/06/14 12:26:04;;;;;;;5.53;3.87;;;;;;;22.97;41.24;100325.41;5558662;32;33697;-56
2023/06/14 12:29:07;;;;;;;5.78;3.55;;;;;;;22.94;40.13;100331.59;5564357;32;34061;-56
2023/06/14 12:32:11;;;;;;;4.55;3.37;;;;;;;22.81;39.83;100324.72;5559152;32;33734;-56
2023/06/14 12:35:15;;;;;;;5.53;3.33;;;;;;;22.73;40.55;100329.28;5562950;32;33572;-56
2023/06/14 12:38:18;;;;;;;10.00;4.43;;;;;;;22.82;40.13;100329.03;5564386;32;33792;-56
2023/06/14 12:41:22;;;;;;;4.62;3.60;;;;;;;22.92;43.71;100330.38;5564375;32;34342;-56
2023/06/14 12:44:24;;;;;;;11.00;4.47;;;;;;;22.92;45.49;100331.16;5567997;32;34292;-56
2023/06/14 12:47:27;;;;;;;5.93;3.35;;;;;;;22.95;43.23;100330.47;5564240;32;34415;-57
2023/06/14 12:50:30;;;;;;;5.03;3.22;;;;;;;22.97;43.38;100341.81;5553410;31;33685;-56
2023/06/14 12:53:33;;;;;;;6.82;3.40;;;;;;;22.95;43.38;100335.94;5569233;32;33321;-56
2023/06/14 12:56:35;;;;;;;5.47;3.37;;;;;;;22.96;43.44;100329.31;5569051;32;34293;-57
2023/06/14 12:59:38;;;;;;;5.60;3.72;;;;;;;22.94;42.28;100328.87;5568538;32;33645;-57
2023/06/14 13:02:40;;;;;;;5.15;3.47;;;;;;;22.92;42.17;100325.69;5569055;32;33932;-57
2023/06/14 13:05:43;;;;;;;5.22;3.40;;;;;;;22.89;41.10;100328.37;5560254;32;34423;-56
2023/06/14 13:08:45;;;;;;;12.43;4.15;;;;;;;22.94;44.80;100322.63;5565351;32;33790;-56
2023/06/14 13:11:47;;;;;;;4.40;3.28;;;;;;;22.98;45.75;100318.03;5560020;32;34439;-57
2023/06/14 13:14:50;;;;;;;4.43;3.35;;;;;;;22.92;46.13;100314.75;5559840;32;33753;-57
2023/06/14 13:17:53;;;;;;;11.25;3.87;;;;;;;22.80;44.67;100317.69;5564911;32;33339;-56
2023/06/14 13:20:55;;;;;;;8.25;4.20;;;;;;;22.67;47.12;100316.28;5568936;32;33633;-57
2023/06/14 13:23:58;;;;;;;7.95;3.65;;;;;;;22.65;47.06;100322.13;5568315;32;34443;-57
2023/06/14 13:27:02;;;;;;;8.55;4.07;;;;;;;22.63;46.88;100324.41;5560113;32;33722;-56
2023/06/14 13:30:06;;;;;;;10.77;4.00;;;;;;;22.60;46.32;100324.34;5564593;32;32336;-56
2023/06/14 13:33:09;;;;;;;8.55;4.20;;;;;;;22.71;46.72;100322.59;5560733;32;33774;-56
2023/06/14 13:36:13;;;;;;;12.75;4.03;;;;;;;22.71;47.97;100320.66;5568185;32;33731;-55
2023/06/14 13:39:17;;;;;;;10.18;3.85;;;;;;;22.75;48.19;100318.78;5567872;32;34178;-54
2023/06/14 13:42:21;;;;;;;6.25;3.83;;;;;;;22.73;46.10;100325.75;5566195;32;34366;-55
2023/06/14 13:45:24;;;;;;;10.70;3.58;;;;;;;22.72;46.92;100310.53;5561342;32;34391;-57
2023/06/14 13:48:27;;;;;;;9.23;4.53;;;;;;;22.75;48.43;100313.31;5549564;32;34364;-58
2023/06/14 13:51:30;;;;;;;10.88;3.85;;;;;;;22.83;46.56;100314.22;5549064;32;33561;-58
2023/06/14 13:54:32;;;;;;;6.93;3.60;;;;;;;22.90;46.81;100308.09;5563167;32;33192;-58
2023/06/14 13:57:35;;;;;;;6.30;3.97;;;;;;;22.91;46.86;100306.91;5568779;32;33487;-57
2023/06/14 14:00:40;;;;;;;11.80;4.68;;;;;;;22.91;46.16;100306.91;5555065;32;33792;-57
2023/06/14 14:03:42;;;;;;;8.75;4.12;;;;;;;22.88;45.49;100313.09;5555569;32;33630;-58
2023/06/14 14:06:46;;;;;;;7.53;3.60;;;;;;;22.84;45.92;100309.53;5565427;32;33770;-57
2023/06/14 14:09:50;;;;;;;6.72;3.70;;;;;;;22.89;45.04;100311.97;5568510;32;33622;-57
2023/06/14 14:12:54;;;;;;;6.62;3.50;;;;;;;22.89;45.16;100310.03;5564356;32;33760;-57
2023/06/14 14:15:57;;;;;;;4.85;3.80;;;;;;;22.78;43.90;100300.88;5562951;32;33745;-57
2023/06/14 14:18:59;;;;;;;7.65;4.25;;;;;;;22.75;44.63;100307.06;5567659;32;33527;-57
2023/06/14 14:22:02;;;;;;;7.22;4.12;;;;;;;22.74;46.95;100308.19;5568035;31;34769;-57
2023/06/14 14:25:06;;;;;;;15.73;4.37;;;;;;;22.65;45.08;100304.91;5567750;31;33619;-57
2023/06/14 14:28:11;;;;;;;8.40;4.00;;;;;;;22.63;47.15;100304.50;5568323;31;33417;-58
2023/06/14 14:31:13;;;;;;;6.75;3.75;;;;;;;22.64;46.67;100309.59;5567745;31;33455;-57
2023/06/14 14:34:16;;;;;;;6.45;3.55;;;;;;;22.68;46.45;100315.13;5568392;32;34401;-57
2023/06/14 14:37:18;;;;;;;16.48;4.15;;;;;;;22.69;46.51;100312.03;5569111;31;34385;-58
2023/06/14 14:40:21;;;;;;;5.12;3.83;;;;;;;22.53;44.93;100308.63;5566753;32;34932;-58
2023/06/14 14:43:23;;;;;;;5.47;3.62;;;;;;;22.51;45.60;100308.19;5569017;32;34013;-57
2023/06/14 14:46:34;;;;;;;5.55;3.62;;;;;;;22.59;45.80;100311.84;5568011;32;34978;-57
2023/06/14 14:49:36;;;;;;;5.00;3.28;;;;;;;22.49;45.88;100313.22;5567628;32;33602;-57
2023/06/14 14:52:39;;;;;;;6.12;3.25;;;;;;;22.46;44.85;100309.28;5566611;32;34427;-58
2023/06/14 14:55:42;;;;;;;6.32;3.65;;;;;;;22.59;46.13;100307.16;5558004;32;34269;-58
2023/06/14 14:58:44;;;;;;;5.85;3.80;;;;;;;22.55;44.20;100310.97;5549636;32;33450;-57
2023/06/14 15:01:46;;;;;;;6.03;3.45;;;;;;;22.57;48.12;100311.41;5560688;32;34045;-57
2023/06/14 15:04:49;;;;;;;4.78;3.50;;;;;;;22.50;43.49;100310.12;5566739;32;34419;-56
2023/06/14 15:07:51;;;;;;;5.62;3.60;;;;;;;22.45;45.25;100310.44;5554292;32;33684;-56
2023/06/14 15:10:54;;;;;;;7.05;3.33;;;;;;;22.47;46.91;100310.06;5549375;32;34424;-56
2023/06/14 15:13:56;;;;;;;7.45;3.60;;;;;;;22.38;46.04;100296.62;5563999;32;34335;-56
